sensor_id;sensor_type;location;lat;lon;timestamp;P1;durP1;ratioP1;P2;durP2;ratioP2
16963;SDS011;8598;50.508;10.436;2023-02-08T00:01:17;17.13;;;8.70;;
16963;SDS011;8598;50.508;10.436;2023-02-08T00:03:46;14.73;;;8.20;;
16963;SDS011;8598;50.508;10.436;2023-02-08T00:06:12;20.17;;;9.40;;
16963;SDS011;8598;50.508;10.436;2023-02-08T00:08:39;15.07;;;8.10;;
16963;SDS011;8598;50.508;10.436;2023-02-08T00:11:06;18.70;;;9.37;;
16963;SDS011;8598;50.508;10.436;2023-02-08T00:13:35;16.33;;;8.83;;
16963;SDS011;8598;50.508;10.436;2023-02-08T00:16:02;13.10;;;8.77;;
16963;SDS011;8598;50.508;10.436;2023-02-08T00:18:30;17.10;;;8.47;;
16963;SDS011;8598;50.508;10.436;2023-02-08T00:20:57;15.33;;;8.67;;
16963;SDS011;8598;50.508;10.436;2023-02-08T00:23:24;20.63;;;9.33;;
16963;SDS011;8598;50.508;10.436;2023-02-08T00:25:51;15.33;;;8.33;;
16963;SDS011;8598;50.508;10.436;2023-02-08T00:28:18;18.03;;;9.27;;
16963;SDS011;8598;50.508;10.436;2023-02-08T00:30:45;13.87;;;8.47;;
16963;SDS011;8598;50.508;10.436;2023-02-08T00:33:11;18.50;;;9.83;;
16963;SDS011;8598;50.508;10.436;2023-02-08T00:35:39;15.73;;;8.17;;
16963;SDS011;8598;50.508;10.436;2023-02-08T00:38:06;16.53;;;8.80;;
16963;SDS011;8598;50.508;10.436;2023-02-08T00:40:33;13.90;;;8.73;;
16963;SDS011;8598;50.508;10.436;2023-02-08T00:42:59;19.20;;;9.30;;
16963;SDS011;8598;50.508;10.436;2023-02-08T00:45:27;13.87;;;8.53;;
16963;SDS011;8598;50.508;10.436;2023-02-08T00:47:53;14.47;;;8.13;;
16963;SDS011;8598;50.508;10.436;2023-02-08T00:50:20;11.63;;;8.57;;
16963;SDS011;8598;50.508;10.436;2023-02-08T00:52:48;18.80;;;10.17;;
16963;SDS011;8598;50.508;10.436;2023-02-08T00:55:15;19.47;;;8.83;;
16963;SDS011;8598;50.508;10.436;2023-02-08T00:57:41;17.27;;;8.90;;
16963;SDS011;8598;50.508;10.436;2023-02-08T01:00:09;13.93;;;8.40;;
16963;SDS011;8598;50.508;10.436;2023-02-08T01:02:36;14.40;;;8.30;;
16963;SDS011;8598;50.508;10.436;2023-02-08T01:05:03;17.57;;;8.73;;
16963;SDS011;8598;50.508;10.436;2023-02-08T01:07:30;17.13;;;8.57;;
16963;SDS011;8598;50.508;10.436;2023-02-08T01:09:58;14.53;;;9.47;;
16963;SDS011;8598;50.508;10.436;2023-02-08T01:12:25;14.53;;;8.80;;
16963;SDS011;8598;50.508;10.436;2023-02-08T01:14:51;14.93;;;8.30;;
16963;SDS011;8598;50.508;10.436;2023-02-08T01:17:18;15.90;;;8.27;;
16963;SDS011;8598;50.508;10.436;2023-02-08T01:19:45;16.03;;;9.40;;
16963;SDS011;8598;50.508;10.436;2023-02-08T01:22:11;15.47;;;9.27;;
16963;SDS011;8598;50.508;10.436;2023-02-08T01:24:38;18.43;;;9.23;;
16963;SDS011;8598;50.508;10.436;2023-02-08T01:27:06;14.50;;;8.90;;
16963;SDS011;8598;50.508;10.436;2023-02-08T01:29:32;17.47;;;9.83;;
16963;SDS011;8598;50.508;10.436;2023-02-08T01:31:59;20.90;;;8.77;;
16963;SDS011;8598;50.508;10.436;2023-02-08T01:34:26;16.10;;;7.50;;
16963;SDS011;8598;50.508;10.436;2023-02-08T01:36:52;17.90;;;9.87;;
16963;SDS011;8598;50.508;10.436;2023-02-08T01:39:19;16.90;;;8.77;;
16963;SDS011;8598;50.508;10.436;2023-02-08T01:41:46;18.73;;;9.87;;
16963;SDS011;8598;50.508;10.436;2023-02-08T01:47:32;15.77;;;9.37;;
16963;SDS011;8598;50.508;10.436;2023-02-08T01:49:59;16.50;;;8.80;;
16963;SDS011;8598;50.508;10.436;2023-02-08T01:52:26;17.43;;;8.73;;
16963;SDS011;8598;50.508;10.436;2023-02-08T01:54:54;21.63;;;8.87;;
16963;SDS011;8598;50.508;10.436;2023-02-08T01:57:24;13.73;;;7.77;;
16963;SDS011;8598;50.508;10.436;2023-02-08T01:59:52;16.80;;;9.30;;
16963;SDS011;8598;50.508;10.436;2023-02-08T02:02:22;20.80;;;9.43;;
16963;SDS011;8598;50.508;10.436;2023-02-08T02:04:51;17.57;;;9.40;;
16963;SDS011;8598;50.508;10.436;2023-02-08T02:07:19;16.80;;;8.50;;
16963;SDS011;8598;50.508;10.436;2023-02-08T02:09:48;16.57;;;10.07;;
16963;SDS011;8598;50.508;10.436;2023-02-08T02:12:18;12.87;;;8.20;;
16963;SDS011;8598;50.508;10.436;2023-02-08T02:14:46;11.67;;;7.77;;
16963;SDS011;8598;50.508;10.436;2023-02-08T02:17:14;14.00;;;8.23;;
16963;SDS011;8598;50.508;10.436;2023-02-08T02:19:46;13.90;;;7.50;;
16963;SDS011;8598;50.508;10.436;2023-02-08T02:22:28;15.07;;;8.10;;
16963;SDS011;8598;50.508;10.436;2023-02-08T02:25:40;14.90;;;6.93;;
16963;SDS011;8598;50.508;10.436;2023-02-08T02:28:22;18.27;;;7.47;;
16963;SDS011;8598;50.508;10.436;2023-02-08T02:31:25;10.83;;;6.67;;
16963;SDS011;8598;50.508;10.436;2023-02-08T02:34:09;10.00;;;6.53;;
16963;SDS011;8598;50.508;10.436;2023-02-08T02:36:43;9.50;;;7.10;;
16963;SDS011;8598;50.508;10.436;2023-02-08T02:39:17;16.53;;;7.47;;
16963;SDS011;8598;50.508;10.436;2023-02-08T02:41:52;10.30;;;6.93;;
16963;SDS011;8598;50.508;10.436;2023-02-08T02:44:41;10.77;;;7.00;;
16963;SDS011;8598;50.508;10.436;2023-02-08T02:47:21;12.23;;;7.50;;
16963;SDS011;8598;50.508;10.436;2023-02-08T02:49:54;10.83;;;6.73;;
16963;SDS011;8598;50.508;10.436;2023-02-08T02:52:30;19.50;;;7.73;;
16963;SDS011;8598;50.508;10.436;2023-02-08T02:55:03;12.40;;;7.63;;
16963;SDS011;8598;50.508;10.436;2023-02-08T02:57:35;12.37;;;7.40;;
16963;SDS011;8598;50.508;10.436;2023-02-08T03:00:05;11.73;;;7.13;;
16963;SDS011;8598;50.508;10.436;2023-02-08T03:02:36;16.40;;;8.00;;
16963;SDS011;8598;50.508;10.436;2023-02-08T03:05:04;13.67;;;8.27;;
16963;SDS011;8598;50.508;10.436;2023-02-08T03:07:42;11.60;;;7.10;;
16963;SDS011;8598;50.508;10.436;2023-02-08T03:10:24;15.60;;;8.13;;
16963;SDS011;8598;50.508;10.436;2023-02-08T03:13:07;14.57;;;7.83;;
16963;SDS011;8598;50.508;10.436;2023-02-08T03:15:47;15.97;;;7.83;;
16963;SDS011;8598;50.508;10.436;2023-02-08T03:18:28;14.63;;;7.33;;
16963;SDS011;8598;50.508;10.436;2023-02-08T03:21:08;14.13;;;7.43;;
16963;SDS011;8598;50.508;10.436;2023-02-08T03:23:37;13.83;;;6.73;;
16963;SDS011;8598;50.508;10.436;2023-02-08T03:26:12;14.63;;;7.40;;
16963;SDS011;8598;50.508;10.436;2023-02-08T03:28:45;11.23;;;7.03;;
16963;SDS011;8598;50.508;10.436;2023-02-08T03:31:22;11.17;;;7.17;;
16963;SDS011;8598;50.508;10.436;2023-02-08T03:33:56;12.57;;;7.23;;
16963;SDS011;8598;50.508;10.436;2023-02-08T03:36:28;12.77;;;6.43;;
16963;SDS011;8598;50.508;10.436;2023-02-08T03:38:58;13.10;;;6.90;;
16963;SDS011;8598;50.508;10.436;2023-02-08T03:41:30;15.03;;;7.17;;
16963;SDS011;8598;50.508;10.436;2023-02-08T03:43:59;13.07;;;7.30;;
16963;SDS011;8598;50.508;10.436;2023-02-08T03:46:28;13.83;;;7.40;;
16963;SDS011;8598;50.508;10.436;2023-02-08T03:49:01;13.10;;;6.97;;
16963;SDS011;8598;50.508;10.436;2023-02-08T03:51:30;15.60;;;9.03;;
16963;SDS011;8598;50.508;10.436;2023-02-08T03:53:59;11.20;;;7.50;;
16963;SDS011;8598;50.508;10.436;2023-02-08T03:56:30;12.57;;;7.27;;
16963;SDS011;8598;50.508;10.436;2023-02-08T03:59:03;13.43;;;7.37;;
16963;SDS011;8598;50.508;10.436;2023-02-08T04:01:35;16.57;;;7.57;;
16963;SDS011;8598;50.508;10.436;2023-02-08T04:04:09;13.10;;;7.40;;
16963;SDS011;8598;50.508;10.436;2023-02-08T04:06:37;13.03;;;6.93;;
16963;SDS011;8598;50.508;10.436;2023-02-08T04:09:04;14.63;;;7.43;;
16963;SDS011;8598;50.508;10.436;2023-02-08T04:11:30;15.43;;;8.80;;
16963;SDS011;8598;50.508;10.436;2023-02-08T04:13:57;11.37;;;7.07;;
16963;SDS011;8598;50.508;10.436;2023-02-08T04:16:23;11.57;;;7.40;;
16963;SDS011;8598;50.508;10.436;2023-02-08T04:18:50;14.47;;;7.77;;
16963;SDS011;8598;50.508;10.436;2023-02-08T04:21:18;14.60;;;7.80;;
16963;SDS011;8598;50.508;10.436;2023-02-08T04:23:44;15.87;;;8.90;;
16963;SDS011;8598;50.508;10.436;2023-02-08T04:26:11;13.63;;;8.10;;
16963;SDS011;8598;50.508;10.436;2023-02-08T04:28:38;12.53;;;7.97;;
16963;SDS011;8598;50.508;10.436;2023-02-08T04:31:04;16.13;;;8.07;;
16963;SDS011;8598;50.508;10.436;2023-02-08T04:33:31;15.83;;;7.60;;
16963;SDS011;8598;50.508;10.436;2023-02-08T04:35:57;10.23;;;6.47;;
16963;SDS011;8598;50.508;10.436;2023-02-08T04:38:25;14.23;;;7.83;;
16963;SDS011;8598;50.508;10.436;2023-02-08T04:40:52;9.67;;;6.67;;
16963;SDS011;8598;50.508;10.436;2023-02-08T04:43:19;13.43;;;7.40;;
16963;SDS011;8598;50.508;10.436;2023-02-08T04:45:45;11.40;;;7.47;;
16963;SDS011;8598;50.508;10.436;2023-02-08T04:48:14;11.10;;;7.30;;
16963;SDS011;8598;50.508;10.436;2023-02-08T04:50:40;13.93;;;6.63;;
16963;SDS011;8598;50.508;10.436;2023-02-08T04:53:07;11.77;;;6.30;;
16963;SDS011;8598;50.508;10.436;2023-02-08T04:55:35;8.47;;;5.83;;
16963;SDS011;8598;50.508;10.436;2023-02-08T04:58:02;12.83;;;6.60;;
16963;SDS011;8598;50.508;10.436;2023-02-08T05:00:28;10.43;;;7.23;;
16963;SDS011;8598;50.508;10.436;2023-02-08T05:02:55;10.57;;;6.70;;
16963;SDS011;8598;50.508;10.436;2023-02-08T05:05:23;15.97;;;7.23;;
16963;SDS011;8598;50.508;10.436;2023-02-08T05:07:51;12.27;;;6.83;;
16963;SDS011;8598;50.508;10.436;2023-02-08T05:10:18;12.30;;;7.00;;
16963;SDS011;8598;50.508;10.436;2023-02-08T05:12:46;10.07;;;6.97;;
16963;SDS011;8598;50.508;10.436;2023-02-08T05:15:12;13.97;;;8.97;;
16963;SDS011;8598;50.508;10.436;2023-02-08T05:17:39;13.20;;;7.30;;
16963;SDS011;8598;50.508;10.436;2023-02-08T05:20:06;13.30;;;7.57;;
16963;SDS011;8598;50.508;10.436;2023-02-08T05:22:33;14.23;;;6.70;;
16963;SDS011;8598;50.508;10.436;2023-02-08T05:25:00;13.40;;;7.90;;
16963;SDS011;8598;50.508;10.436;2023-02-08T05:27:26;11.30;;;6.90;;
16963;SDS011;8598;50.508;10.436;2023-02-08T05:29:54;12.13;;;7.87;;
16963;SDS011;8598;50.508;10.436;2023-02-08T05:32:21;11.90;;;7.10;;
16963;SDS011;8598;50.508;10.436;2023-02-08T05:34:48;10.23;;;6.67;;
16963;SDS011;8598;50.508;10.436;2023-02-08T05:37:14;13.57;;;7.53;;
16963;SDS011;8598;50.508;10.436;2023-02-08T05:39:41;17.33;;;7.07;;
16963;SDS011;8598;50.508;10.436;2023-02-08T05:42:07;9.40;;;6.33;;
16963;SDS011;8598;50.508;10.436;2023-02-08T05:44:34;10.23;;;6.10;;
16963;SDS011;8598;50.508;10.436;2023-02-08T05:47:02;12.17;;;7.03;;
16963;SDS011;8598;50.508;10.436;2023-02-08T05:49:29;13.47;;;6.70;;
16963;SDS011;8598;50.508;10.436;2023-02-08T05:51:55;11.00;;;6.23;;
16963;SDS011;8598;50.508;10.436;2023-02-08T05:54:22;10.90;;;6.40;;
16963;SDS011;8598;50.508;10.436;2023-02-08T05:56:49;10.87;;;7.33;;
16963;SDS011;8598;50.508;10.436;2023-02-08T05:59:15;16.40;;;8.93;;
16963;SDS011;8598;50.508;10.436;2023-02-08T06:01:42;11.43;;;7.47;;
16963;SDS011;8598;50.508;10.436;2023-02-08T06:04:10;12.97;;;7.40;;
16963;SDS011;8598;50.508;10.436;2023-02-08T06:06:36;15.60;;;8.23;;
16963;SDS011;8598;50.508;10.436;2023-02-08T06:09:03;13.80;;;7.83;;
16963;SDS011;8598;50.508;10.436;2023-02-08T06:11:29;13.53;;;7.87;;
16963;SDS011;8598;50.508;10.436;2023-02-08T06:13:56;9.07;;;6.40;;
16963;SDS011;8598;50.508;10.436;2023-02-08T06:16:24;14.23;;;8.73;;
16963;SDS011;8598;50.508;10.436;2023-02-08T06:18:50;14.20;;;8.80;;
16963;SDS011;8598;50.508;10.436;2023-02-08T06:21:18;19.37;;;9.93;;
16963;SDS011;8598;50.508;10.436;2023-02-08T06:23:45;17.40;;;8.87;;
16963;SDS011;8598;50.508;10.436;2023-02-08T06:26:11;12.00;;;7.33;;
16963;SDS011;8598;50.508;10.436;2023-02-08T06:28:38;13.50;;;7.87;;
16963;SDS011;8598;50.508;10.436;2023-02-08T06:31:04;14.93;;;7.07;;
16963;SDS011;8598;50.508;10.436;2023-02-08T06:33:31;12.13;;;6.27;;
16963;SDS011;8598;50.508;10.436;2023-02-08T06:35:58;11.07;;;6.77;;
16963;SDS011;8598;50.508;10.436;2023-02-08T06:38:26;17.77;;;9.20;;
16963;SDS011;8598;50.508;10.436;2023-02-08T06:40:52;18.00;;;8.77;;
16963;SDS011;8598;50.508;10.436;2023-02-08T06:43:19;11.37;;;6.13;;
16963;SDS011;8598;50.508;10.436;2023-02-08T06:45:45;9.43;;;5.87;;
16963;SDS011;8598;50.508;10.436;2023-02-08T06:48:13;8.30;;;6.37;;
16963;SDS011;8598;50.508;10.436;2023-02-08T06:50:39;14.87;;;7.10;;
16963;SDS011;8598;50.508;10.436;2023-02-08T06:53:06;10.67;;;6.37;;
16963;SDS011;8598;50.508;10.436;2023-02-08T06:55:34;14.00;;;8.47;;
16963;SDS011;8598;50.508;10.436;2023-02-08T06:58:01;13.97;;;7.50;;
16963;SDS011;8598;50.508;10.436;2023-02-08T07:00:27;11.00;;;6.53;;
16963;SDS011;8598;50.508;10.436;2023-02-08T07:02:54;8.97;;;6.03;;
16963;SDS011;8598;50.508;10.436;2023-02-08T07:05:21;14.30;;;8.37;;
16963;SDS011;8598;50.508;10.436;2023-02-08T07:07:47;12.67;;;7.30;;
16963;SDS011;8598;50.508;10.436;2023-02-08T07:10:15;12.57;;;6.67;;
16963;SDS011;8598;50.508;10.436;2023-02-08T07:12:43;10.67;;;6.30;;
16963;SDS011;8598;50.508;10.436;2023-02-08T07:15:09;10.57;;;6.40;;
16963;SDS011;8598;50.508;10.436;2023-02-08T07:17:37;13.10;;;6.60;;
16963;SDS011;8598;50.508;10.436;2023-02-08T07:20:04;13.97;;;5.83;;
16963;SDS011;8598;50.508;10.436;2023-02-08T07:22:31;9.07;;;5.20;;
16963;SDS011;8598;50.508;10.436;2023-02-08T07:24:58;10.87;;;5.53;;
16963;SDS011;8598;50.508;10.436;2023-02-08T07:27:24;12.23;;;5.37;;
16963;SDS011;8598;50.508;10.436;2023-02-08T07:29:52;10.83;;;5.47;;
16963;SDS011;8598;50.508;10.436;2023-02-08T07:32:19;11.37;;;5.33;;
16963;SDS011;8598;50.508;10.436;2023-02-08T07:34:45;13.50;;;5.00;;
16963;SDS011;8598;50.508;10.436;2023-02-08T07:37:12;13.20;;;4.67;;
16963;SDS011;8598;50.508;10.436;2023-02-08T07:39:39;15.13;;;5.17;;
16963;SDS011;8598;50.508;10.436;2023-02-08T07:42:06;10.40;;;5.13;;
16963;SDS011;8598;50.508;10.436;2023-02-08T07:44:35;11.97;;;6.43;;
16963;SDS011;8598;50.508;10.436;2023-02-08T07:47:03;9.37;;;5.80;;
16963;SDS011;8598;50.508;10.436;2023-02-08T07:49:30;26.83;;;5.97;;
16963;SDS011;8598;50.508;10.436;2023-02-08T07:51:57;9.63;;;5.50;;
16963;SDS011;8598;50.508;10.436;2023-02-08T07:54:24;11.70;;;6.57;;
16963;SDS011;8598;50.508;10.436;2023-02-08T07:56:51;11.50;;;6.67;;
16963;SDS011;8598;50.508;10.436;2023-02-08T07:59:17;11.30;;;5.47;;
16963;SDS011;8598;50.508;10.436;2023-02-08T08:01:44;12.77;;;6.93;;
16963;SDS011;8598;50.508;10.436;2023-02-08T08:04:12;7.37;;;5.23;;
16963;SDS011;8598;50.508;10.436;2023-02-08T08:06:38;17.77;;;5.97;;
16963;SDS011;8598;50.508;10.436;2023-02-08T08:09:05;11.00;;;6.23;;
16963;SDS011;8598;50.508;10.436;2023-02-08T08:11:32;11.30;;;6.27;;
16963;SDS011;8598;50.508;10.436;2023-02-08T08:13:58;16.50;;;6.53;;
16963;SDS011;8598;50.508;10.436;2023-02-08T08:16:25;9.73;;;5.33;;
16963;SDS011;8598;50.508;10.436;2023-02-08T08:18:51;10.00;;;6.10;;
16963;SDS011;8598;50.508;10.436;2023-02-08T08:21:19;9.63;;;6.10;;
16963;SDS011;8598;50.508;10.436;2023-02-08T08:23:46;10.13;;;6.07;;
16963;SDS011;8598;50.508;10.436;2023-02-08T08:26:13;10.10;;;6.20;;
16963;SDS011;8598;50.508;10.436;2023-02-08T08:28:41;12.40;;;6.10;;
16963;SDS011;8598;50.508;10.436;2023-02-08T08:31:11;11.40;;;5.43;;
16963;SDS011;8598;50.508;10.436;2023-02-08T08:33:38;10.80;;;6.33;;
16963;SDS011;8598;50.508;10.436;2023-02-08T08:36:05;13.00;;;7.13;;
16963;SDS011;8598;50.508;10.436;2023-02-08T08:38:34;13.60;;;6.00;;
16963;SDS011;8598;50.508;10.436;2023-02-08T08:41:02;15.23;;;6.33;;
16963;SDS011;8598;50.508;10.436;2023-02-08T08:43:32;9.10;;;5.47;;
16963;SDS011;8598;50.508;10.436;2023-02-08T08:45:58;11.83;;;5.80;;
16963;SDS011;8598;50.508;10.436;2023-02-08T08:48:25;9.57;;;5.93;;
16963;SDS011;8598;50.508;10.436;2023-02-08T08:50:52;12.43;;;5.60;;
16963;SDS011;8598;50.508;10.436;2023-02-08T08:53:19;7.83;;;5.10;;
16963;SDS011;8598;50.508;10.436;2023-02-08T08:55:47;12.63;;;5.97;;
16963;SDS011;8598;50.508;10.436;2023-02-08T08:58:13;9.97;;;5.47;;
16963;SDS011;8598;50.508;10.436;2023-02-08T09:00:40;10.27;;;4.73;;
16963;SDS011;8598;50.508;10.436;2023-02-08T09:03:07;9.80;;;5.33;;
16963;SDS011;8598;50.508;10.436;2023-02-08T09:05:33;8.13;;;5.23;;
16963;SDS011;8598;50.508;10.436;2023-02-08T09:08:00;7.33;;;4.60;;
16963;SDS011;8598;50.508;10.436;2023-02-08T09:10:27;8.33;;;4.80;;
16963;SDS011;8598;50.508;10.436;2023-02-08T09:12:56;6.83;;;4.97;;
16963;SDS011;8598;50.508;10.436;2023-02-08T09:15:22;7.73;;;4.93;;
16963;SDS011;8598;50.508;10.436;2023-02-08T09:17:49;9.53;;;4.53;;
16963;SDS011;8598;50.508;10.436;2023-02-08T09:20:15;12.67;;;4.90;;
16963;SDS011;8598;50.508;10.436;2023-02-08T09:22:42;13.67;;;5.17;;
16963;SDS011;8598;50.508;10.436;2023-02-08T09:25:09;8.93;;;4.00;;
16963;SDS011;8598;50.508;10.436;2023-02-08T09:27:35;5.73;;;4.50;;
16963;SDS011;8598;50.508;10.436;2023-02-08T09:30:04;6.57;;;4.33;;
16963;SDS011;8598;50.508;10.436;2023-02-08T09:32:31;6.33;;;3.80;;
16963;SDS011;8598;50.508;10.436;2023-02-08T09:34:59;6.03;;;3.27;;
16963;SDS011;8598;50.508;10.436;2023-02-08T09:37:26;6.87;;;4.17;;
16963;SDS011;8598;50.508;10.436;2023-02-08T09:39:53;8.40;;;4.00;;
16963;SDS011;8598;50.508;10.436;2023-02-08T09:42:26;6.80;;;3.53;;
16963;SDS011;8598;50.508;10.436;2023-02-08T09:45:06;7.53;;;4.27;;
16963;SDS011;8598;50.508;10.436;2023-02-08T09:47:56;9.60;;;4.07;;
16963;SDS011;8598;50.508;10.436;2023-02-08T09:50:29;5.20;;;3.23;;
16963;SDS011;8598;50.508;10.436;2023-02-08T09:53:00;8.20;;;4.40;;
16963;SDS011;8598;50.508;10.436;2023-02-08T09:55:32;8.87;;;3.47;;
16963;SDS011;8598;50.508;10.436;2023-02-08T09:58:02;6.80;;;4.60;;
16963;SDS011;8598;50.508;10.436;2023-02-08T10:00:35;6.27;;;3.50;;
16963;SDS011;8598;50.508;10.436;2023-02-08T10:03:05;8.03;;;4.17;;
16963;SDS011;8598;50.508;10.436;2023-02-08T10:05:48;7.80;;;3.90;;
16963;SDS011;8598;50.508;10.436;2023-02-08T10:08:15;5.67;;;3.53;;
16963;SDS011;8598;50.508;10.436;2023-02-08T10:10:42;8.10;;;4.33;;
16963;SDS011;8598;50.508;10.436;2023-02-08T10:13:23;11.30;;;4.40;;
16963;SDS011;8598;50.508;10.436;2023-02-08T10:16:06;7.37;;;4.40;;
16963;SDS011;8598;50.508;10.436;2023-02-08T10:18:45;8.17;;;5.60;;
16963;SDS011;8598;50.508;10.436;2023-02-08T10:21:23;13.10;;;7.63;;
16963;SDS011;8598;50.508;10.436;2023-02-08T10:24:07;9.37;;;6.00;;
16963;SDS011;8598;50.508;10.436;2023-02-08T10:26:43;15.43;;;5.77;;
16963;SDS011;8598;50.508;10.436;2023-02-08T10:32:17;9.47;;;4.90;;
16963;SDS011;8598;50.508;10.436;2023-02-08T10:34:53;15.53;;;5.53;;
16963;SDS011;8598;50.508;10.436;2023-02-08T10:37:27;16.60;;;6.27;;
16963;SDS011;8598;50.508;10.436;2023-02-08T10:39:59;16.73;;;8.20;;
16963;SDS011;8598;50.508;10.436;2023-02-08T10:42:40;13.23;;;8.37;;
16963;SDS011;8598;50.508;10.436;2023-02-08T10:45:14;12.53;;;7.33;;
16963;SDS011;8598;50.508;10.436;2023-02-08T10:47:49;20.07;;;10.53;;
16963;SDS011;8598;50.508;10.436;2023-02-08T10:50:19;23.10;;;11.10;;
16963;SDS011;8598;50.508;10.436;2023-02-08T10:52:50;15.03;;;8.40;;
16963;SDS011;8598;50.508;10.436;2023-02-08T10:55:18;18.40;;;8.80;;
16963;SDS011;8598;50.508;10.436;2023-02-08T10:57:46;17.43;;;8.77;;
16963;SDS011;8598;50.508;10.436;2023-02-08T11:00:17;17.70;;;8.53;;
16963;SDS011;8598;50.508;10.436;2023-02-08T11:02:46;13.63;;;7.73;;
16963;SDS011;8598;50.508;10.436;2023-02-08T11:05:19;20.40;;;9.50;;
16963;SDS011;8598;50.508;10.436;2023-02-08T11:07:47;11.33;;;7.03;;
16963;SDS011;8598;50.508;10.436;2023-02-08T11:10:31;9.40;;;5.23;;
16963;SDS011;8598;50.508;10.436;2023-02-08T11:12:59;11.70;;;6.30;;
16963;SDS011;8598;50.508;10.436;2023-02-08T11:15:36;11.53;;;6.47;;
16963;SDS011;8598;50.508;10.436;2023-02-08T11:18:05;9.73;;;6.00;;
16963;SDS011;8598;50.508;10.436;2023-02-08T11:20:35;7.03;;;4.97;;
16963;SDS011;8598;50.508;10.436;2023-02-08T11:23:04;7.33;;;4.80;;
16963;SDS011;8598;50.508;10.436;2023-02-08T11:25:44;7.40;;;4.60;;
16963;SDS011;8598;50.508;10.436;2023-02-08T11:28:20;9.90;;;5.57;;
16963;SDS011;8598;50.508;10.436;2023-02-08T11:30:53;8.57;;;5.73;;
16963;SDS011;8598;50.508;10.436;2023-02-08T11:33:21;7.30;;;4.83;;
16963;SDS011;8598;50.508;10.436;2023-02-08T11:35:55;8.30;;;4.70;;
16963;SDS011;8598;50.508;10.436;2023-02-08T11:38:25;9.73;;;4.97;;
16963;SDS011;8598;50.508;10.436;2023-02-08T11:40:53;9.40;;;5.37;;
16963;SDS011;8598;50.508;10.436;2023-02-08T11:43:23;8.57;;;5.27;;
16963;SDS011;8598;50.508;10.436;2023-02-08T11:45:52;9.37;;;5.13;;
16963;SDS011;8598;50.508;10.436;2023-02-08T11:48:21;9.03;;;5.73;;
16963;SDS011;8598;50.508;10.436;2023-02-08T11:50:56;10.43;;;5.87;;
16963;SDS011;8598;50.508;10.436;2023-02-08T11:53:26;9.60;;;5.53;;
16963;SDS011;8598;50.508;10.436;2023-02-08T11:56:03;9.20;;;5.33;;
16963;SDS011;8598;50.508;10.436;2023-02-08T11:58:32;12.00;;;5.37;;
16963;SDS011;8598;50.508;10.436;2023-02-08T12:01:00;8.87;;;5.30;;
16963;SDS011;8598;50.508;10.436;2023-02-08T12:03:29;10.90;;;5.70;;
16963;SDS011;8598;50.508;10.436;2023-02-08T12:06:03;9.27;;;4.70;;
16963;SDS011;8598;50.508;10.436;2023-02-08T12:08:51;8.67;;;4.80;;
16963;SDS011;8598;50.508;10.436;2023-02-08T12:11:28;9.80;;;5.50;;
16963;SDS011;8598;50.508;10.436;2023-02-08T12:16:56;5.10;;;4.17;;
16963;SDS011;8598;50.508;10.436;2023-02-08T12:20:00;7.80;;;5.27;;
16963;SDS011;8598;50.508;10.436;2023-02-08T12:22:42;7.33;;;4.87;;
16963;SDS011;8598;50.508;10.436;2023-02-08T12:25:21;7.50;;;4.73;;
16963;SDS011;8598;50.508;10.436;2023-02-08T12:27:57;8.20;;;4.30;;
16963;SDS011;8598;50.508;10.436;2023-02-08T12:30:31;11.20;;;5.50;;
16963;SDS011;8598;50.508;10.436;2023-02-08T12:36:07;8.60;;;4.50;;
16963;SDS011;8598;50.508;10.436;2023-02-08T12:38:49;8.93;;;5.10;;
16963;SDS011;8598;50.508;10.436;2023-02-08T12:41:43;7.13;;;5.30;;
16963;SDS011;8598;50.508;10.436;2023-02-08T12:44:23;9.83;;;4.80;;
16963;SDS011;8598;50.508;10.436;2023-02-08T12:46:59;8.53;;;5.13;;
16963;SDS011;8598;50.508;10.436;2023-02-08T12:49:34;16.13;;;7.80;;
16963;SDS011;8598;50.508;10.436;2023-02-08T12:52:16;10.90;;;6.33;;
16963;SDS011;8598;50.508;10.436;2023-02-08T12:54:53;12.77;;;7.00;;
16963;SDS011;8598;50.508;10.436;2023-02-08T12:57:24;8.37;;;5.27;;
16963;SDS011;8598;50.508;10.436;2023-02-08T12:59:53;7.03;;;5.00;;
16963;SDS011;8598;50.508;10.436;2023-02-08T13:02:24;8.97;;;5.10;;
16963;SDS011;8598;50.508;10.436;2023-02-08T13:04:54;6.60;;;4.37;;
16963;SDS011;8598;50.508;10.436;2023-02-08T13:07:25;9.03;;;4.80;;
16963;SDS011;8598;50.508;10.436;2023-02-08T13:09:58;8.63;;;4.93;;
16963;SDS011;8598;50.508;10.436;2023-02-08T13:12:29;10.40;;;5.43;;
16963;SDS011;8598;50.508;10.436;2023-02-08T13:15:00;6.77;;;4.97;;
16963;SDS011;8598;50.508;10.436;2023-02-08T13:17:38;6.90;;;4.10;;
16963;SDS011;8598;50.508;10.436;2023-02-08T13:20:15;8.10;;;5.17;;
16963;SDS011;8598;50.508;10.436;2023-02-08T13:22:52;5.70;;;3.80;;
16963;SDS011;8598;50.508;10.436;2023-02-08T13:25:26;12.47;;;4.57;;
16963;SDS011;8598;50.508;10.436;2023-02-08T13:27:59;9.67;;;5.73;;
16963;SDS011;8598;50.508;10.436;2023-02-08T13:30:27;9.60;;;6.10;;
16963;SDS011;8598;50.508;10.436;2023-02-08T13:32:54;29.43;;;14.43;;
16963;SDS011;8598;50.508;10.436;2023-02-08T13:35:22;12.97;;;7.57;;
16963;SDS011;8598;50.508;10.436;2023-02-08T13:37:53;7.97;;;5.43;;
16963;SDS011;8598;50.508;10.436;2023-02-08T13:40:25;14.57;;;7.37;;
16963;SDS011;8598;50.508;10.436;2023-02-08T13:42:56;7.77;;;5.20;;
16963;SDS011;8598;50.508;10.436;2023-02-08T13:45:26;6.73;;;4.30;;
16963;SDS011;8598;50.508;10.436;2023-02-08T13:47:56;8.00;;;5.00;;
16963;SDS011;8598;50.508;10.436;2023-02-08T13:50:36;9.87;;;5.20;;
16963;SDS011;8598;50.508;10.436;2023-02-08T13:53:08;6.10;;;4.43;;
16963;SDS011;8598;50.508;10.436;2023-02-08T13:58:27;10.07;;;5.57;;
16963;SDS011;8598;50.508;10.436;2023-02-08T14:01:01;11.13;;;4.90;;
16963;SDS011;8598;50.508;10.436;2023-02-08T14:03:40;8.37;;;4.97;;
16963;SDS011;8598;50.508;10.436;2023-02-08T14:06:07;8.33;;;5.57;;
16963;SDS011;8598;50.508;10.436;2023-02-08T14:08:45;12.53;;;6.57;;
16963;SDS011;8598;50.508;10.436;2023-02-08T14:11:22;13.67;;;6.80;;
16963;SDS011;8598;50.508;10.436;2023-02-08T14:14:01;6.80;;;4.37;;
16963;SDS011;8598;50.508;10.436;2023-02-08T14:16:31;7.53;;;5.57;;
16963;SDS011;8598;50.508;10.436;2023-02-08T14:19:00;10.07;;;6.47;;
16963;SDS011;8598;50.508;10.436;2023-02-08T14:21:30;13.47;;;6.47;;
16963;SDS011;8598;50.508;10.436;2023-02-08T14:23:59;7.60;;;5.43;;
16963;SDS011;8598;50.508;10.436;2023-02-08T14:26:30;9.40;;;6.07;;
16963;SDS011;8598;50.508;10.436;2023-02-08T14:28:57;11.67;;;6.80;;
16963;SDS011;8598;50.508;10.436;2023-02-08T14:31:39;14.20;;;6.47;;
16963;SDS011;8598;50.508;10.436;2023-02-08T14:34:22;7.77;;;5.13;;
16963;SDS011;8598;50.508;10.436;2023-02-08T14:36:59;6.90;;;4.73;;
16963;SDS011;8598;50.508;10.436;2023-02-08T14:39:29;10.10;;;5.70;;
16963;SDS011;8598;50.508;10.436;2023-02-08T14:42:00;12.23;;;7.63;;
16963;SDS011;8598;50.508;10.436;2023-02-08T14:50:52;10.37;;;5.93;;
16963;SDS011;8598;50.508;10.436;2023-02-08T14:53:28;10.73;;;5.70;;
16963;SDS011;8598;50.508;10.436;2023-02-08T14:56:02;11.73;;;5.40;;
16963;SDS011;8598;50.508;10.436;2023-02-08T14:58:34;8.07;;;5.20;;
16963;SDS011;8598;50.508;10.436;2023-02-08T15:01:05;9.47;;;6.00;;
16963;SDS011;8598;50.508;10.436;2023-02-08T15:03:37;8.80;;;6.40;;
16963;SDS011;8598;50.508;10.436;2023-02-08T15:09:12;12.27;;;8.57;;
16963;SDS011;8598;50.508;10.436;2023-02-08T15:11:42;13.23;;;8.60;;
16963;SDS011;8598;50.508;10.436;2023-02-08T15:14:17;52.43;;;31.17;;
16963;SDS011;8598;50.508;10.436;2023-02-08T15:16:45;22.47;;;13.60;;
16963;SDS011;8598;50.508;10.436;2023-02-08T15:19:21;24.97;;;14.57;;
16963;SDS011;8598;50.508;10.436;2023-02-08T15:21:50;11.33;;;7.67;;